Time;durP1;ratioP1;P1;durP2;ratioP2;P2;SDS_P1;SDS_P2;PMS_P1;PMS_P2;Temp;Humidity;BMP_temperature;BMP_pressure;BME280_temperature;BME280_humidity;BME280_pressure;Samples;Min_cycle;Max_cycle;Signal;HPM_P1;HPM_P2
2023/08/31 00:02:11;;;;;;;2.47;0.50;;;11.40;99.90;;;;;;5079328;27;20072;-93
2023/08/31 00:04:37;;;;;;;1.42;0.40;;;11.40;99.90;;;;;;5089453;27;20047;-93
2023/08/31 00:07:03;;;;;;;2.40;0.47;;;11.40;99.90;;;;;;5078408;27;20047;-93
2023/08/31 00:09:32;;;;;;;3.92;0.43;;;11.40;99.90;;;;;;5102212;27;20051;-93
2023/08/31 00:11:58;;;;;;;1.40;0.40;;;11.40;99.90;;;;;;5080744;27;20133;-93
2023/08/31 00:14:24;;;;;;;3.08;0.47;;;11.30;99.90;;;;;;5079931;27;20043;-93
2023/08/31 00:16:50;;;;;;;1.20;0.50;;;11.30;99.90;;;;;;5089110;27;20043;-93
2023/08/31 00:19:16;;;;;;;2.78;0.50;;;11.30;99.90;;;;;;5078724;27;20049;-92
2023/08/31 00:21:42;;;;;;;1.33;0.60;;;11.30;99.90;;;;;;5088058;27;20039;-93
2023/08/31 00:24:09;;;;;;;3.43;0.70;;;11.30;99.90;;;;;;5105621;27;20046;-92
2023/08/31 00:26:40;;;;;;;1.48;0.60;;;11.30;99.90;;;;;;5082469;27;20042;-92
2023/08/31 00:29:06;;;;;;;2.22;0.70;;;11.20;99.90;;;;;;5106365;27;20091;-93
2023/08/31 00:31:33;;;;;;;1.05;0.40;;;11.30;99.90;;;;;;5090681;27;20038;-93
2023/08/31 00:34:04;;;;;;;2.33;0.70;;;11.30;99.90;;;;;;5081871;27;20046;-94
2023/08/31 00:36:33;;;;;;;2.67;0.68;;;11.30;99.90;;;;;;5091265;27;20425;-92
2023/08/31 00:39:05;;;;;;;1.65;0.70;;;11.30;99.90;;;;;;5109252;27;20042;-91
2023/08/31 00:41:31;;;;;;;2.88;0.70;;;11.30;99.90;;;;;;5089579;27;20050;-90
2023/08/31 00:43:58;;;;;;;2.35;0.90;;;11.30;99.90;;;;;;5081394;27;20035;-91
2023/08/31 00:46:24;;;;;;;3.05;1.00;;;11.30;99.90;;;;;;5106919;27;20030;-92
2023/08/31 00:48:50;;;;;;;2.15;1.20;;;11.40;99.90;;;;;;5079489;27;20107;-91
2023/08/31 00:51:17;;;;;;;4.15;1.23;;;11.40;99.90;;;;;;5106163;27;20109;-91
2023/08/31 00:53:43;;;;;;;3.80;1.55;;;11.30;99.90;;;;;;5103656;27;20095;-93
2023/08/31 00:56:09;;;;;;;2.58;1.67;;;11.30;99.90;;;;;;5081004;27;20050;-93
2023/08/31 00:58:35;;;;;;;4.03;1.42;;;11.30;99.90;;;;;;5089001;27;20130;-92
2023/08/31 01:01:19;;;;;;;3.15;1.70;;;11.30;99.90;;;;;;5080869;27;20043;-90
2023/08/31 01:03:50;;;;;;;4.07;1.65;;;11.40;99.90;;;;;;5104735;27;20035;-91
2023/08/31 01:06:29;;;;;;;4.75;1.58;;;11.30;99.90;;;;;;5106944;27;20051;-91
2023/08/31 01:09:13;;;;;;;;;;;11.30;99.90;;;;;;5100940;27;20053;-90
2023/08/31 01:11:49;;;;;;;4.32;1.90;;;11.30;99.90;;;;;;5100678;27;20216;-91
2023/08/31 01:14:20;;;;;;;3.63;1.70;;;11.30;99.90;;;;;;5101535;27;20043;-92
2023/08/31 01:16:49;;;;;;;4.45;1.95;;;11.30;99.90;;;;;;5103649;27;20528;-91
2023/08/31 01:19:34;;;;;;;4.18;1.83;;;11.20;99.90;;;;;;5089071;27;20531;-93
2023/08/31 01:22:07;;;;;;;2.78;1.55;;;11.30;99.90;;;;;;5104482;27;20111;-90
2023/08/31 01:24:35;;;;;;;4.60;2.00;;;11.20;99.90;;;;;;5100815;27;20416;-93
2023/08/31 01:27:01;;;;;;;3.78;1.75;;;11.20;99.90;;;;;;5083359;27;20046;-92
2023/08/31 01:29:29;;;;;;;5.05;2.10;;;11.20;99.90;;;;;;5073417;27;20171;-90
2023/08/31 01:31:55;;;;;;;3.92;1.80;;;11.20;99.90;;;;;;5082522;27;20042;-90
2023/08/31 01:34:20;;;;;;;2.65;1.80;;;11.20;99.90;;;;;;5073413;27;20480;-90
2023/08/31 01:36:52;;;;;;;2.95;1.75;;;10.70;99.90;;;;;;5095556;27;20075;-89
2023/08/31 01:39:26;;;;;;;2.55;1.80;;;11.10;99.90;;;;;;5115876;27;20617;-90
2023/08/31 01:41:58;;;;;;;2.65;1.58;;;11.00;99.90;;;;;;5101148;27;20359;-90
2023/08/31 01:44:25;;;;;;;3.42;1.60;;;11.00;99.90;;;;;;5100971;27;20704;-90
2023/08/31 01:46:52;;;;;;;;;;;11.00;99.90;;;;;;5098761;27;20069;-91
2023/08/31 01:49:19;;;;;;;4.63;1.80;;;10.90;99.90;;;;;;5100841;27;19919;-91
2023/08/31 01:51:44;;;;;;;4.13;1.60;;;10.80;99.90;;;;;;5089899;27;20358;-92
2023/08/31 01:54:10;;;;;;;2.30;1.40;;;10.80;99.90;;;;;;5089731;27;20055;-92
2023/08/31 01:56:36;;;;;;;1.73;1.40;;;;;;;;;;5082498;27;20062;-95
2023/08/31 01:59:02;;;;;;;2.45;1.30;;;10.80;99.90;;;;;;5091277;27;20055;-94
2023/08/31 02:01:29;;;;;;;4.45;1.30;;;10.80;99.90;;;;;;5087183;27;20121;-93
2023/08/31 02:03:55;;;;;;;1.85;1.30;;;10.80;99.90;;;;;;5104906;27;20049;-91
2023/08/31 02:06:20;;;;;;;1.85;1.00;;;10.90;99.90;;;;;;5069969;28;20044;-95
2023/08/31 02:08:47;;;;;;;4.47;1.10;;;10.80;99.90;;;;;;5071283;28;20066;-92
2023/08/31 02:11:13;;;;;;;2.93;1.47;;;10.80;99.90;;;;;;5077753;28;20147;-94
2023/08/31 02:13:41;;;;;;;2.92;1.08;;;10.80;99.90;;;;;;5071234;28;20454;-90
2023/08/31 02:16:07;;;;;;;4.35;1.23;;;10.80;99.90;;;;;;5098502;28;20155;-92
2023/08/31 02:18:33;;;;;;;2.33;0.82;;;10.70;99.90;;;;;;5080444;28;20049;-92
2023/08/31 02:20:59;;;;;;;1.92;0.88;;;10.70;99.90;;;;;;5079256;28;20467;-92
2023/08/31 02:23:24;;;;;;;1.95;0.85;;;10.90;99.90;;;;;;5069315;28;20051;-91
2023/08/31 02:25:50;;;;;;;3.83;1.10;;;10.80;99.90;;;;;;5069702;28;20682;-92
2023/08/31 02:28:17;;;;;;;2.15;0.80;;;10.70;99.90;;;;;;5060404;28;20046;-92
2023/08/31 02:30:44;;;;;;;2.05;0.95;;;10.80;99.90;;;;;;5072167;28;20297;-91
2023/08/31 02:33:10;;;;;;;2.33;0.95;;;10.70;99.90;;;;;;5070837;28;20101;-92
2023/08/31 02:35:36;;;;;;;2.25;0.82;;;10.40;99.90;;;;;;5073764;28;20035;-92
2023/08/31 02:38:02;;;;;;;2.75;0.75;;;10.70;99.90;;;;;;5073088;28;20051;-91
2023/08/31 02:40:28;;;;;;;5.38;0.82;;;10.70;99.90;;;;;;5062712;28;20288;-92
2023/08/31 02:42:53;;;;;;;2.83;0.80;;;10.70;99.90;;;;;;5078000;28;20066;-93
2023/08/31 02:45:19;;;;;;;3.08;0.70;;;10.70;99.90;;;;;;5079613;28;20442;-94
2023/08/31 02:47:45;;;;;;;2.25;0.80;;;10.70;99.90;;;;;;5071374;28;20131;-92
2023/08/31 02:50:11;;;;;;;3.40;0.80;;;10.70;99.90;;;;;;5084944;28;20046;-93
2023/08/31 02:52:36;;;;;;;1.92;0.90;;;10.80;99.90;;;;;;5056443;28;20036;-92
2023/08/31 02:55:02;;;;;;;2.15;0.75;;;10.80;99.90;;;;;;5104832;28;20052;-93
2023/08/31 02:57:28;;;;;;;1.05;0.60;;;10.70;99.90;;;;;;5069748;28;20131;-94
2023/08/31 02:59:54;;;;;;;1.25;0.68;;;10.80;99.90;;;;;;5073369;28;20119;-91
2023/08/31 03:02:20;;;;;;;1.95;0.82;;;10.80;99.90;;;;;;5071063;28;20418;-92
2023/08/31 03:04:45;;;;;;;2.88;0.60;;;10.70;99.90;;;;;;5084192;28;20046;-91
2023/08/31 03:07:13;;;;;;;2.20;0.70;;;10.80;99.90;;;;;;5079976;27;20047;-94
2023/08/31 03:09:42;;;;;;;1.40;0.57;;;10.80;99.90;;;;;;5088453;27;20106;-92
2023/08/31 03:12:08;;;;;;;2.40;0.60;;;10.70;99.90;;;;;;5080581;27;20047;-93
2023/08/31 03:14:33;;;;;;;1.98;0.70;;;10.80;99.90;;;;;;5080273;27;20055;-93
2023/08/31 03:16:59;;;;;;;4.28;0.80;;;10.80;99.90;;;;;;5087642;27;20039;-91
2023/08/31 03:19:25;;;;;;;7.68;0.85;;;10.80;99.90;;;;;;5080710;27;20156;-92
2023/08/31 03:21:51;;;;;;;0.70;0.50;;;10.80;99.90;;;;;;5071414;28;20113;-93
2023/08/31 03:24:17;;;;;;;2.38;0.70;;;10.80;99.90;;;;;;5085621;27;20036;-90
2023/08/31 03:26:42;;;;;;;3.08;0.65;;;10.90;99.90;;;;;;5105855;27;20058;-90
2023/08/31 03:29:08;;;;;;;3.75;0.85;;;10.90;99.90;;;;;;5088112;27;20126;-91
2023/08/31 03:31:34;;;;;;;1.52;0.57;;;10.90;99.90;;;;;;5080386;27;20131;-92
2023/08/31 03:34:00;;;;;;;2.85;0.80;;;10.80;99.90;;;;;;5088672;27;20047;-88
2023/08/31 03:36:25;;;;;;;2.30;1.00;;;10.80;99.90;;;;;;5078863;27;20054;-92
2023/08/31 03:38:51;;;;;;;3.17;0.50;;;10.80;99.90;;;;;;5087195;27;20130;-93
2023/08/31 03:41:17;;;;;;;1.77;0.65;;;10.70;99.90;;;;;;5076696;27;20074;-91
2023/08/31 03:43:43;;;;;;;2.58;0.70;;;10.80;99.90;;;;;;5109503;27;20070;-92
2023/08/31 03:46:09;;;;;;;3.00;0.70;;;10.80;99.90;;;;;;5080060;27;20042;-93
2023/08/31 03:48:34;;;;;;;2.63;0.80;;;10.80;99.90;;;;;;5074607;27;20043;-93
2023/08/31 03:51:00;;;;;;;2.25;0.57;;;10.70;99.90;;;;;;5076772;27;20046;-92
2023/08/31 03:53:26;;;;;;;1.33;0.50;;;10.70;99.90;;;;;;5104534;27;20050;-91
2023/08/31 03:55:52;;;;;;;1.95;0.82;;;10.70;99.90;;;;;;5104149;27;20050;-91
2023/08/31 03:58:18;;;;;;;1.20;0.60;;;10.60;99.90;;;;;;5101818;27;20057;-92
2023/08/31 04:00:44;;;;;;;1.67;0.70;;;10.60;99.90;;;;;;5077559;27;20128;-92
2023/08/31 04:03:10;;;;;;;2.28;0.82;;;10.70;99.90;;;;;;5085807;27;20108;-92
2023/08/31 04:05:35;;;;;;;2.10;0.73;;;10.60;99.90;;;;;;5087842;27;20486;-93
2023/08/31 04:08:02;;;;;;;1.88;0.77;;;10.70;99.90;;;;;;5079950;27;20059;-93
2023/08/31 04:10:29;;;;;;;2.20;0.63;;;10.80;99.90;;;;;;5086206;27;20397;-93
2023/08/31 04:12:55;;;;;;;3.05;0.63;;;10.70;99.90;;;;;;5106160;27;20043;-92
2023/08/31 04:15:21;;;;;;;2.53;0.70;;;10.80;99.90;;;;;;5107800;27;20098;-91
2023/08/31 04:17:47;;;;;;;1.98;0.70;;;10.60;99.90;;;;;;5102969;27;20126;-92
2023/08/31 04:20:13;;;;;;;2.83;0.90;;;10.80;99.90;;;;;;5090074;27;20073;-93
2023/08/31 04:22:38;;;;;;;1.83;0.80;;;10.70;99.90;;;;;;5085310;27;20097;-93
2023/08/31 04:25:04;;;;;;;1.10;0.60;;;10.70;99.90;;;;;;5102025;27;20043;-93
2023/08/31 04:27:33;;;;;;;2.15;0.85;;;10.70;99.90;;;;;;5088792;28;20036;-95
2023/08/31 04:30:00;;;;;;;2.58;1.10;;;10.70;99.90;;;;;;5100620;27;20390;-91
2023/08/31 04:32:26;;;;;;;;;;;10.80;99.90;;;;;;5101702;27;20105;-93
2023/08/31 04:34:53;;;;;;;1.90;0.75;;;10.70;99.90;;;;;;5100948;27;19933;-92
2023/08/31 04:37:23;;;;;;;1.85;1.08;;;10.80;99.90;;;;;;5096980;27;20039;-92
2023/08/31 04:39:49;;;;;;;1.83;0.77;;;10.90;99.90;;;;;;5100610;27;20801;-92
2023/08/31 04:42:18;;;;;;;4.82;1.27;;;10.80;99.90;;;;;;5103173;27;20043;-93
2023/08/31 04:44:44;;;;;;;1.92;0.75;;;11.00;99.90;;;;;;5075283;27;20035;-91
2023/08/31 04:47:11;;;;;;;3.35;1.20;;;10.80;99.90;;;;;;5084100;27;20054;-94
2023/08/31 04:49:36;;;;;;;1.37;0.97;;;10.80;99.90;;;;;;5102515;27;20046;-90
2023/08/31 04:52:02;;;;;;;1.88;0.98;;;10.90;99.90;;;;;;5075924;27;20398;-92
2023/08/31 04:54:28;;;;;;;1.88;1.00;;;11.00;99.90;;;;;;5083365;27;20402;-91
2023/08/31 04:56:54;;;;;;;2.95;1.17;;;10.70;99.90;;;;;;5075563;27;20054;-93
2023/08/31 04:59:19;;;;;;;4.15;1.60;;;11.00;99.90;;;;;;5077444;27;20035;-92
2023/08/31 05:01:45;;;;;;;2.75;1.08;;;11.10;99.90;;;;;;5102103;27;20039;-92
2023/08/31 05:04:11;;;;;;;3.35;1.40;;;11.10;99.90;;;;;;5101799;27;20039;-92
2023/08/31 05:06:36;;;;;;;2.15;1.08;;;11.00;99.90;;;;;;5075349;27;20755;-92
2023/08/31 05:09:03;;;;;;;2.17;1.00;;;11.20;99.90;;;;;;5086018;27;20084;-91
2023/08/31 05:11:28;;;;;;;4.45;1.25;;;11.20;99.90;;;;;;5084362;27;20069;-91
2023/08/31 05:13:54;;;;;;;2.17;1.27;;;11.10;99.90;;;;;;5083608;27;20059;-90
2023/08/31 05:16:20;;;;;;;3.33;0.90;;;11.20;99.90;;;;;;5082337;27;20042;-91
2023/08/31 05:18:46;;;;;;;2.97;1.00;;;11.30;99.90;;;;;;5084424;27;20042;-91
2023/08/31 05:21:11;;;;;;;2.22;1.13;;;11.30;99.90;;;;;;5085640;27;20039;-91
2023/08/31 05:23:37;;;;;;;2.00;0.88;;;11.30;99.90;;;;;;5101021;27;20258;-92
2023/08/31 05:26:03;;;;;;;2.95;1.13;;;11.40;99.90;;;;;;5084027;27;20081;-92
2023/08/31 05:28:29;;;;;;;2.65;0.98;;;11.30;99.90;;;;;;5075322;27;20097;-92
2023/08/31 05:30:57;;;;;;;4.38;1.00;;;11.40;99.90;;;;;;5083052;27;20043;-91
2023/08/31 05:33:25;;;;;;;1.98;1.00;;;11.50;99.90;;;;;;5110235;27;20043;-92
2023/08/31 05:35:51;;;;;;;;;;;11.50;99.90;;;;;;5095012;27;20039;-92
2023/08/31 05:38:16;;;;;;;2.85;1.20;;;11.60;99.90;;;;;;5103938;27;19937;-92
2023/08/31 05:40:48;;;;;;;2.45;0.80;;;11.70;99.90;;;;;;5101301;27;20040;-90
2023/08/31 05:43:14;;;;;;;2.40;1.00;;;11.80;99.90;;;;;;5082054;27;20046;-90
2023/08/31 05:45:40;;;;;;;1.80;0.77;;;11.80;99.90;;;;;;5097643;27;20049;-91
2023/08/31 05:48:06;;;;;;;8.07;1.50;;;11.90;99.90;;;;;;5105077;27;20070;-90
2023/08/31 05:50:32;;;;;;;4.85;0.93;;;12.10;99.90;;;;;;5080702;27;20445;-91
2023/08/31 05:52:59;;;;;;;3.58;0.93;;;12.30;99.90;;;;;;5095001;27;20441;-90
2023/08/31 05:55:24;;;;;;;5.00;1.02;;;12.40;99.90;;;;;;5079522;27;20533;-90
2023/08/31 05:57:50;;;;;;;2.45;0.70;;;12.40;99.90;;;;;;5080362;28;20096;-90
2023/08/31 06:00:17;;;;;;;2.30;0.60;;;12.50;99.90;;;;;;5064733;27;20077;-90
2023/08/31 06:02:46;;;;;;;2.97;0.57;;;12.50;99.90;;;;;;5094429;28;20049;-90
2023/08/31 06:05:12;;;;;;;1.65;0.65;;;12.50;99.90;;;;;;5098534;27;20609;-91
2023/08/31 06:07:39;;;;;;;2.67;0.70;;;12.60;99.90;;;;;;5096349;28;20043;-90
2023/08/31 06:10:05;;;;;;;3.90;0.80;;;12.60;99.90;;;;;;5097562;27;20533;-91
2023/08/31 06:12:31;;;;;;;1.42;0.45;;;12.80;99.90;;;;;;5072723;28;20036;-91
2023/08/31 06:14:58;;;;;;;2.47;0.68;;;13.00;99.90;;;;;;5083525;28;20112;-91
2023/08/31 06:17:24;;;;;;;2.63;0.65;;;13.10;99.90;;;;;;5102617;28;20046;-90
2023/08/31 06:19:49;;;;;;;2.50;0.60;;;13.50;99.90;;;;;;5086296;28;20437;-91
2023/08/31 06:22:15;;;;;;;3.92;0.70;;;13.90;99.90;;;;;;5084941;28;20039;-92
2023/08/31 06:24:42;;;;;;;2.95;0.65;;;14.10;99.90;;;;;;5079564;28;20035;-92
2023/08/31 06:27:12;;;;;;;3.88;0.80;;;14.70;99.90;;;;;;5089685;28;20100;-93
2023/08/31 06:29:38;;;;;;;2.63;0.55;;;15.30;99.90;;;;;;5086479;28;20451;-93
2023/08/31 06:32:04;;;;;;;2.97;0.50;;;15.80;99.90;;;;;;5079636;28;20122;-93
2023/08/31 06:34:30;;;;;;;1.00;0.40;;;16.10;99.90;;;;;;5088486;27;20040;-92
2023/08/31 06:36:58;;;;;;;7.00;1.25;;;16.20;99.90;;;;;;5095233;27;20047;-92
2023/08/31 06:39:24;;;;;;;3.97;0.80;;;16.50;99.90;;;;;;5082470;28;20132;-92
2023/08/31 06:41:50;;;;;;;2.90;0.80;;;16.70;99.90;;;;;;5115597;27;20039;-92
2023/08/31 06:44:16;;;;;;;1.63;0.50;;;16.80;99.90;;;;;;5106464;27;20472;-93
2023/08/31 06:46:42;;;;;;;1.40;0.38;;;17.00;99.90;;;;;;5108174;27;20512;-93
2023/08/31 06:49:09;;;;;;;3.50;0.50;;;16.90;99.90;;;;;;5088664;27;20118;-93
2023/08/31 06:51:35;;;;;;;2.22;0.52;;;16.70;99.90;;;;;;5087637;27;20089;-92
2023/08/31 06:54:07;;;;;;;3.50;0.40;;;16.60;99.90;;;;;;5089362;27;20059;-94
2023/08/31 06:56:35;;;;;;;3.30;0.52;;;16.50;99.90;;;;;;5083399;27;20032;-94
2023/08/31 06:59:02;;;;;;;1.67;0.50;;;16.70;99.90;;;;;;5107719;27;20184;-94
2023/08/31 07:01:29;;;;;;;3.03;0.50;;;16.80;99.90;;;;;;5085639;28;20043;-93
2023/08/31 07:03:58;;;;;;;1.85;0.40;;;17.00;99.90;;;;;;5111627;27;20046;-91
2023/08/31 07:06:24;;;;;;;3.45;0.40;;;17.10;99.90;;;;;;5096473;27;20105;-92
2023/08/31 07:08:50;;;;;;;1.75;0.52;;;17.20;99.90;;;;;;5111719;27;20034;-92
2023/08/31 07:11:17;;;;;;;1.55;0.45;;;17.40;99.90;;;;;;5111498;27;20047;-92
2023/08/31 07:13:43;;;;;;;3.63;0.50;;;17.50;99.90;;;;;;5118164;27;20125;-93
2023/08/31 07:16:09;;;;;;;0.85;0.40;;;18.50;99.90;;;;;;5134264;27;20078;-93
2023/08/31 07:18:36;;;;;;;2.10;0.40;;;19.20;99.90;;;;;;5088099;27;20043;-93
2023/08/31 07:21:04;;;;;;;1.52;0.30;;;20.20;99.90;;;;;;5093299;27;20047;-93
2023/08/31 07:23:30;;;;;;;2.05;0.52;;;20.90;99.90;;;;;;5113739;27;20131;-93
2023/08/31 07:26:00;;;;;;;2.28;0.52;;;21.70;99.90;;;;;;5115001;27;20035;-94
2023/08/31 07:28:26;;;;;;;1.98;0.30;;;22.10;99.90;;;;;;5088894;27;20138;-93
2023/08/31 07:31:06;;;;;;;3.42;0.40;;;22.60;99.90;;;;;;5098704;27;20038;-94
2023/08/31 07:33:33;;;;;;;2.42;0.20;;;22.70;99.90;;;;;;5108297;27;20098;-96
2023/08/31 07:35:59;;;;;;;2.00;0.43;;;23.00;99.90;;;;;;5113282;27;20043;-93
2023/08/31 07:38:26;;;;;;;2.03;0.40;;;23.20;99.90;;;;;;5092897;27;20971;-90
2023/08/31 07:40:52;;;;;;;;;;;23.30;99.90;;;;;;5116122;27;20096;-90
2023/08/31 07:43:18;;;;;;;1.75;0.35;;;23.20;99.90;;;;;;5100816;27;19927;-89
2023/08/31 07:45:44;;;;;;;1.80;0.63;;;23.50;99.90;;;;;;5107673;27;20131;-88
2023/08/31 07:48:09;;;;;;;1.27;0.25;;;23.40;99.90;;;;;;5076862;27;20035;-92
2023/08/31 07:50:35;;;;;;;2.25;0.20;;;23.60;99.90;;;;;;5075758;27;20128;-92
2023/08/31 07:53:01;;;;;;;1.27;0.40;;;23.80;99.90;;;;;;5074819;27;20046;-89
2023/08/31 07:55:27;;;;;;;1.88;0.35;;;23.80;99.90;;;;;;5084414;27;20403;-91
2023/08/31 07:57:53;;;;;;;2.28;0.63;;;23.80;99.90;;;;;;5099455;27;20047;-91
2023/08/31 08:00:19;;;;;;;1.73;0.32;;;23.80;99.90;;;;;;5074428;27;20043;-87
2023/08/31 08:02:47;;;;;;;3.55;0.35;;;23.80;99.90;;;;;;5086364;27;20035;-94
2023/08/31 08:05:13;;;;;;;1.27;0.20;;;23.90;99.90;;;;;;5091969;27;20445;-93
2023/08/31 08:07:45;;;;;;;1.45;0.20;;;24.10;99.90;;;;;;5080027;27;20142;-91
2023/08/31 08:10:11;;;;;;;2.33;0.40;;;24.20;99.90;;;;;;5085571;27;20130;-93
2023/08/31 08:12:45;;;;;;;1.10;0.20;;;24.40;99.90;;;;;;5091115;27;20154;-93
2023/08/31 08:15:11;;;;;;;1.23;0.22;;;24.50;99.90;;;;;;5088344;27;20545;-93
2023/08/31 08:17:37;;;;;;;2.27;0.40;;;24.50;99.90;;;;;;5079961;27;20107;-92
2023/08/31 08:20:05;;;;;;;0.90;0.20;;;24.50;99.90;;;;;;5097006;27;20035;-95
2023/08/31 08:22:31;;;;;;;1.17;0.30;;;24.60;99.90;;;;;;5098486;27;20043;-87
2023/08/31 08:24:57;;;;;;;0.40;0.10;;;24.50;99.90;;;;;;5084325;27;20039;-92
2023/08/31 08:27:23;;;;;;;0.83;0.30;;;24.40;99.90;;;;;;5074407;27;20049;-91
2023/08/31 08:29:48;;;;;;;0.97;0.50;;;24.30;99.90;;;;;;5090542;27;20118;-84
2023/08/31 08:32:14;;;;;;;1.20;0.30;;;24.20;99.90;;;;;;5103984;27;20445;-90
2023/08/31 08:34:40;;;;;;;1.17;0.30;;;24.00;99.90;;;;;;5080567;27;20419;-90
2023/08/31 08:37:06;;;;;;;1.70;0.30;;;23.90;99.90;;;;;;5081811;27;20102;-93
2023/08/31 08:39:32;;;;;;;0.73;0.20;;;23.90;99.90;;;;;;5101411;27;20095;-94
2023/08/31 08:42:04;;;;;;;3.70;0.37;;;23.70;99.90;;;;;;5084686;27;20035;-94
2023/08/31 08:44:35;;;;;;;1.65;0.20;;;23.80;99.90;;;;;;5101899;27;20074;-91
2023/08/31 08:47:01;;;;;;;1.27;0.30;;;23.50;99.90;;;;;;5100803;27;20041;-92
2023/08/31 08:49:29;;;;;;;1.13;0.20;;;23.20;99.90;;;;;;5097863;27;20035;-87
2023/08/31 08:51:55;;;;;;;0.95;0.20;;;22.50;99.90;;;;;;5085269;27;20078;-88
2023/08/31 08:54:27;;;;;;;1.10;0.22;;;21.90;99.90;;;;;;5087239;27;20463;-91
2023/08/31 08:56:52;;;;;;;3.17;0.30;;;21.30;99.90;;;;;;5105793;27;20078;-90
2023/08/31 08:59:19;;;;;;;0.35;0.20;;;;;;;;;;5087310;27;20070;-93
2023/08/31 09:01:46;;;;;;;1.13;0.30;;;20.70;99.90;;;;;;5090458;27;20042;-95
2023/08/31 09:04:12;;;;;;;2.35;0.20;;;20.30;99.90;;;;;;5085488;27;20073;-90
2023/08/31 09:06:39;;;;;;;0.98;0.20;;;20.20;99.90;;;;;;5083866;27;20030;-92
2023/08/31 09:09:04;;;;;;;2.08;0.20;;;19.90;99.90;;;;;;5093043;27;20496;-94
2023/08/31 09:11:30;;;;;;;2.42;0.55;;;19.70;99.90;;;;;;5078950;27;20035;-96
2023/08/31 09:13:58;;;;;;;0.98;0.15;;;19.60;99.90;;;;;;5089076;27;20540;-95
2023/08/31 09:16:28;;;;;;;0.25;0.20;;;19.60;99.90;;;;;;5086665;27;20035;-90
2023/08/31 09:18:58;;;;;;;1.10;0.25;;;19.40;99.90;;;;;;5084393;27;20037;-90
2023/08/31 09:21:37;;;;;;;1.75;0.30;;;19.20;99.90;;;;;;5104135;27;20047;-90
2023/08/31 09:24:07;;;;;;;3.10;0.40;;;18.90;99.90;;;;;;5065618;27;20772;-83
2023/08/31 09:26:38;;;;;;;1.55;0.25;;;18.50;99.90;;;;;;5101049;27;20985;-83
2023/08/31 09:29:05;;;;;;;0.65;0.20;;;18.00;99.90;;;;;;5083544;27;20035;-91
2023/08/31 09:31:31;;;;;;;0.40;0.20;;;17.60;99.90;;;;;;5092960;27;20039;-94
2023/08/31 09:33:57;;;;;;;1.25;0.20;;;17.30;99.90;;;;;;5105412;27;20088;-91
2023/08/31 09:36:23;;;;;;;1.50;0.30;;;17.10;99.90;;;;;;5109248;27;20092;-93
2023/08/31 09:38:49;;;;;;;1.60;0.35;;;17.10;99.90;;;;;;5087287;27;20118;-92
2023/08/31 09:41:15;;;;;;;2.30;0.30;;;17.30;99.90;;;;;;5086711;27;20489;-94
2023/08/31 09:43:42;;;;;;;0.75;0.20;;;17.60;99.90;;;;;;5106124;27;20039;-92
2023/08/31 09:46:09;;;;;;;0.85;0.32;;;17.90;99.90;;;;;;5085541;27;20039;-91
2023/08/31 09:48:37;;;;;;;1.63;0.25;;;18.10;99.90;;;;;;5067749;27;20275;-85
2023/08/31 09:51:04;;;;;;;3.80;0.50;;;18.40;99.90;;;;;;5078962;27;20035;-87
2023/08/31 09:53:31;;;;;;;2.38;0.47;;;18.60;99.90;;;;;;5078062;27;20035;-86
2023/08/31 09:55:57;;;;;;;1.63;0.30;;;18.50;99.90;;;;;;5096674;27;20506;-91
2023/08/31 09:58:23;;;;;;;3.30;0.45;;;18.00;99.90;;;;;;5078758;27;20042;-88
2023/08/31 10:00:51;;;;;;;0.73;0.20;;;17.60;99.90;;;;;;5094171;27;20111;-90
2023/08/31 10:03:17;;;;;;;0.52;0.20;;;17.50;99.90;;;;;;5105015;27;20095;-92
2023/08/31 10:05:47;;;;;;;0.88;0.30;;;17.40;99.90;;;;;;5113567;27;20042;-87
2023/08/31 10:08:14;;;;;;;0.80;0.35;;;17.60;99.90;;;;;;5084909;27;20054;-94
2023/08/31 10:10:41;;;;;;;0.95;0.25;;;17.90;99.90;;;;;;5094511;27;20062;-86
2023/08/31 10:13:07;;;;;;;1.25;0.20;;;18.10;99.90;;;;;;5074872;28;20104;-86
2023/08/31 10:15:35;;;;;;;1.58;0.20;;;18.30;99.90;;;;;;5075864;28;20513;-92
2023/08/31 10:18:02;;;;;;;2.55;0.40;;;18.60;99.90;;;;;;5096394;28;20464;-86
2023/08/31 10:20:31;;;;;;;;;;;18.60;99.90;;;;;;5084811;28;20056;-85
2023/08/31 10:22:58;;;;;;;0.68;0.30;;;18.70;99.90;;;;;;5095092;28;20239;-91
2023/08/31 10:25:26;;;;;;;0.63;0.30;;;18.80;99.90;;;;;;5078385;28;20437;-93
2023/08/31 10:27:54;;;;;;;1.55;0.47;;;;;;;;;;5082070;28;20059;-91
2023/08/31 10:30:22;;;;;;;1.27;0.40;;;19.10;99.90;;;;;;5102083;28;20513;-88
2023/08/31 10:33:07;;;;;;;1.38;0.40;;;19.30;99.90;;;;;;5089449;28;20035;-90
2023/08/31 10:35:48;;;;;;;2.58;0.40;;;19.40;99.90;;;;;;5096610;28;20583;-92
2023/08/31 10:38:24;;;;;;;2.53;0.40;;;19.60;99.90;;;;;;5080104;28;20054;-89
2023/08/31 10:41:02;;;;;;;1.63;0.40;;;19.80;99.90;;;;;;5095236;28;20047;-86
2023/08/31 10:43:49;;;;;;;1.20;0.50;;;19.90;99.90;;;;;;5101366;28;20046;-92
2023/08/31 10:46:19;;;;;;;1.67;0.30;;;20.00;99.90;;;;;;5087239;28;20079;-92
2023/08/31 10:48:55;;;;;;;1.48;0.35;;;20.10;99.90;;;;;;5083755;28;20032;-94
2023/08/31 10:51:32;;;;;;;2.08;0.60;;;20.20;99.90;;;;;;5097276;28;20043;-93
2023/08/31 10:54:04;;;;;;;1.38;0.30;;;20.30;99.90;;;;;;5084043;28;20250;-94
2023/08/31 10:56:32;;;;;;;0.85;0.40;;;20.40;99.90;;;;;;5119358;27;20048;-85
2023/08/31 10:58:59;;;;;;;0.63;0.30;;;20.20;99.90;;;;;;5098636;28;20039;-88
2023/08/31 11:01:55;;;;;;;2.70;0.40;;;19.60;99.90;;;;;;5081900;28;20076;-91
2023/08/31 11:04:23;;;;;;;2.75;0.50;;;19.60;99.90;;;;;;5093840;28;20560;-90
2023/08/31 11:06:48;;;;;;;2.53;0.50;;;19.50;99.90;;;;;;5077854;28;20121;-87
2023/08/31 11:09:21;;;;;;;1.58;0.30;;;19.60;99.90;;;;;;5070583;28;20113;-86
2023/08/31 11:11:48;;;;;;;2.22;0.38;;;19.60;99.90;;;;;;5055731;28;20496;-87
2023/08/31 11:14:15;;;;;;;1.13;0.30;;;19.50;99.90;;;;;;5034995;28;20066;-91
2023/08/31 11:16:41;;;;;;;;;;;19.50;99.90;;;;;;5065939;28;20043;-94
2023/08/31 11:19:08;;;;;;;0.55;0.15;;;19.60;99.90;;;;;;5077442;28;19920;-96
2023/08/31 11:21:35;;;;;;;3.08;0.40;;;19.60;99.90;;;;;;5073902;28;20039;-92
2023/08/31 11:24:02;;;;;;;1.30;0.30;;;19.70;99.90;;;;;;5073704;28;20059;-89
2023/08/31 11:26:31;;;;;;;0.60;0.28;;;19.70;99.90;;;;;;5076032;28;20470;-90
2023/08/31 11:28:57;;;;;;;1.80;0.50;;;19.80;99.90;;;;;;5083518;28;20126;-93
2023/08/31 11:31:24;;;;;;;20.55;1.77;;;19.90;99.90;;;;;;5057911;28;20130;-91
2023/08/31 11:33:49;;;;;;;2.08;0.68;;;19.90;99.90;;;;;;5053705;27;20054;-96
2023/08/31 11:36:19;;;;;;;0.90;0.30;;;20.10;99.90;;;;;;5048357;28;20688;-93
2023/08/31 11:38:45;;;;;;;1.50;0.50;;;20.20;99.90;;;;;;5049540;28;20079;-94
2023/08/31 11:41:11;;;;;;;0.65;0.30;;;20.30;99.90;;;;;;5059856;28;20071;-94
2023/08/31 11:43:37;;;;;;;0.90;0.30;;;20.10;99.90;;;;;;5068814;28;20050;-85
2023/08/31 11:46:04;;;;;;;2.50;0.30;;;19.80;99.90;;;;;;5074723;28;20039;-87
2023/08/31 11:48:31;;;;;;;1.48;0.40;;;18.90;99.90;;;;;;5048983;28;20035;-89
2023/08/31 11:50:58;;;;;;;0.68;0.22;;;18.20;99.90;;;;;;5087425;27;20050;-89
2023/08/31 11:53:24;;;;;;;1.65;0.20;;;17.40;99.90;;;;;;5045224;28;20158;-88
2023/08/31 11:55:51;;;;;;;1.13;0.20;;;16.30;99.90;;;;;;5041455;28;20044;-87
2023/08/31 11:58:17;;;;;;;0.63;0.30;;;16.20;99.90;;;;;;5060354;28;20601;-88
2023/08/31 12:00:43;;;;;;;2.08;0.45;;;15.90;99.90;;;;;;5057607;28;20055;-90
2023/08/31 12:03:09;;;;;;;3.65;0.50;;;15.60;99.90;;;;;;5058203;28;20245;-92
2023/08/31 12:05:46;;;;;;;0.75;0.20;;;15.50;99.90;;;;;;5059848;28;20067;-93
2023/08/31 12:08:12;;;;;;;2.20;0.40;;;15.40;99.90;;;;;;5087757;28;20047;-92
2023/08/31 12:10:41;;;;;;;1.42;0.40;;;15.40;99.90;;;;;;5084103;27;20035;-92
2023/08/31 12:13:11;;;;;;;1.17;0.40;;;15.50;99.90;;;;;;5054766;27;20071;-92
2023/08/31 12:15:37;;;;;;;2.30;0.43;;;15.60;99.90;;;;;;5103312;27;20039;-91
2023/08/31 12:18:12;;;;;;;0.75;0.35;;;15.80;99.90;;;;;;5049739;27;20050;-91
2023/08/31 12:20:51;;;;;;;0.93;0.40;;;16.00;99.90;;;;;;5078372;27;20546;-90
2023/08/31 12:23:23;;;;;;;2.25;0.52;;;16.20;99.90;;;;;;5076296;27;20132;-92
2023/08/31 12:25:50;;;;;;;1.75;0.63;;;16.20;99.90;;;;;;5073032;27;20074;-92
2023/08/31 12:28:21;;;;;;;1.90;0.60;;;16.30;99.90;;;;;;5095130;27;20046;-87
2023/08/31 12:30:52;;;;;;;1.23;0.60;;;16.30;99.90;;;;;;5097306;27;20484;-91
2023/08/31 12:33:18;;;;;;;1.95;0.50;;;16.20;99.90;;;;;;5113336;27;20039;-91
2023/08/31 12:35:44;;;;;;;1.33;0.43;;;16.20;99.90;;;;;;5097346;27;20039;-92
2023/08/31 12:38:11;;;;;;;0.75;0.35;;;16.20;99.90;;;;;;5098879;27;20379;-91
2023/08/31 12:40:39;;;;;;;1.88;0.50;;;16.10;99.90;;;;;;5067497;27;20051;-91
2023/08/31 12:43:06;;;;;;;1.75;0.40;;;16.00;99.90;;;;;;5080992;27;20057;-92
2023/08/31 12:45:32;;;;;;;3.10;0.60;;;16.00;99.90;;;;;;5078973;27;20035;-91
2023/08/31 12:47:59;;;;;;;1.20;0.50;;;16.00;99.90;;;;;;5078663;27;20039;-93
2023/08/31 12:50:25;;;;;;;3.97;1.00;;;16.10;99.90;;;;;;5084897;27;20100;-91
2023/08/31 12:52:51;;;;;;;1.10;0.50;;;16.30;99.90;;;;;;5098329;27;20397;-93